Time;durP1;ratioP1;P1;durP2;ratioP2;P2;SDS_P1;SDS_P2;PMS_P1;PMS_P2;Temp;Humidity;BMP_temperature;BMP_pressure;BME280_temperature;BME280_humidity;BME280_pressure;Samples;Min_cycle;Max_cycle;Signal;HPM_P1;HPM_P2
2022/05/02 00:01:58;;;;;;;11.60;4.75;;;;;;;;;;5109939;27;20043;-53
2022/05/02 00:04:24;;;;;;;9.38;5.70;;;;;;;;;;5110561;28;20102;-50
2022/05/02 00:06:50;;;;;;;11.30;5.65;;;;;;;;;;5110855;28;20450;-55
2022/05/02 00:09:16;;;;;;;12.65;5.63;;;;;;;;;;5110257;28;20115;-54
2022/05/02 00:11:42;;;;;;;8.98;4.85;;;;;;;;;;5110286;28;20561;-55
2022/05/02 00:14:08;;;;;;;8.45;5.47;;;;;;;;;;5110649;28;20030;-50
2022/05/02 00:16:35;;;;;;;11.52;5.78;;;;;;;;;;5110509;28;20023;-51
2022/05/02 00:19:01;;;;;;;8.38;4.78;;;;;;;;;;5109987;27;20027;-52
2022/05/02 00:21:28;;;;;;;9.75;5.45;;;;;;;;;;5110226;28;20031;-54
2022/05/02 00:23:54;;;;;;;8.93;4.85;;;;;;;;;;5110761;28;20035;-53
2022/05/02 00:26:19;;;;;;;10.07;5.07;;;;;;;;;;5109856;28;20047;-53
2022/05/02 00:28:47;;;;;;;8.52;5.13;;;;;;;;;;5110538;28;20020;-51
2022/05/02 00:31:13;;;;;;;7.82;5.97;;;;;;;;;;5109397;28;20576;-53
2022/05/02 00:33:39;;;;;;;8.88;5.38;;;;;;;;;;5110241;28;20036;-55
2022/05/02 00:36:05;;;;;;;8.55;5.30;;;;;;;;;;5110396;28;20466;-53
2022/05/02 00:38:31;;;;;;;7.18;4.53;;;;;;;;;;5109878;28;20036;-51
2022/05/02 00:40:58;;;;;;;7.03;4.78;;;;;;;;;;5109876;28;20553;-50
2022/05/02 00:43:24;;;;;;;10.57;5.43;;;;;;;;;;5110239;28;20034;-54
2022/05/02 00:45:50;;;;;;;9.48;5.40;;;;;;;;;;5109904;28;20474;-53
2022/05/02 00:48:18;;;;;;;10.07;5.85;;;;;;;;;;5109745;28;20067;-51
2022/05/02 00:50:47;;;;;;;8.68;4.80;;;;;;;;;;5109759;28;20053;-53
2022/05/02 00:53:14;;;;;;;7.50;5.25;;;;;;;;;;5109510;28;20024;-52
2022/05/02 00:55:41;;;;;;;10.25;5.60;;;;;;;;;;5109410;28;20028;-52
2022/05/02 00:58:08;;;;;;;8.63;4.95;;;;;;;;;;5110225;28;20027;-52
2022/05/02 01:00:35;;;;;;;8.23;4.70;;;;;;;;;;5109643;28;21361;-54
2022/05/02 01:03:02;;;;;;;7.43;4.97;;;;;;;;;;5109442;28;20078;-50
2022/05/02 01:05:28;;;;;;;9.65;4.70;;;;;;;;;;5109248;28;20035;-54
2022/05/02 01:07:54;;;;;;;8.57;5.53;;;;;;;;;;5109963;28;20023;-52
2022/05/02 01:10:20;;;;;;;10.45;5.68;;;;;;;;;;5109662;28;20051;-55
2022/05/02 01:12:48;;;;;;;8.60;4.57;;;;;;;;;;5110071;28;20442;-52
2022/05/02 01:15:14;;;;;;;8.20;5.10;;;;;;;;;;5110363;28;20402;-52
2022/05/02 01:17:41;;;;;;;9.35;4.97;;;;;;;;;;5109849;28;20024;-54
2022/05/02 01:20:08;;;;;;;10.07;5.25;;;;;;;;;;5110527;28;20028;-53
2022/05/02 01:22:34;;;;;;;8.48;5.45;;;;;;;;;;5110049;28;20107;-54
2022/05/02 01:25:00;;;;;;;9.50;5.30;;;;;;;;;;5110686;28;20051;-52
2022/05/02 01:27:26;;;;;;;8.45;4.88;;;;;;;;;;5109593;27;20449;-51
2022/05/02 01:29:52;;;;;;;9.00;5.40;;;;;;;;;;5110649;28;20102;-54
2022/05/02 01:32:18;;;;;;;8.77;4.97;;;;;;;;;;5109767;28;20468;-54
2022/05/02 01:34:44;;;;;;;7.72;4.47;;;;;;;;;;5110008;28;20034;-52
2022/05/02 01:37:11;;;;;;;7.43;5.10;;;;;;;;;;5109884;28;20070;-52
2022/05/02 01:39:37;;;;;;;8.98;4.80;;;;;;;;;;5110057;28;20092;-51
2022/05/02 01:42:06;;;;;;;7.13;4.70;;;;;;;;;;5109886;28;20352;-53
2022/05/02 01:44:32;;;;;;;7.03;4.55;;;;;;;;;;5090021;28;20016;-51
2022/05/02 01:46:58;;;;;;;8.05;4.85;;;;;;;;;;5092567;28;20103;-53
2022/05/02 01:49:25;;;;;;;7.50;4.82;;;;;;;;;;5108827;28;20027;-54
2022/05/02 01:51:51;;;;;;;8.95;4.50;;;;;;;;;;5108557;28;20075;-52
2022/05/02 01:54:17;;;;;;;9.02;4.88;;;;;;;;;;5108958;28;20141;-52
2022/05/02 01:56:44;;;;;;;7.20;4.97;;;;;;;;;;5108969;28;20028;-56
2022/05/02 01:59:10;;;;;;;8.63;5.35;;;;;;;;;;5108795;28;20102;-53
2022/05/02 02:01:36;;;;;;;6.45;4.50;;;;;;;;;;5109007;28;20032;-53
2022/05/02 02:05:48;;;;;;;6.68;4.90;;;;;;;;;;5108866;28;20028;-53
2022/05/02 02:06:49;;;;;;;8.07;4.80;;;;;;;;;;5088338;28;20032;-52
2022/05/02 02:09:16;;;;;;;6.40;4.55;;;;;;;;;;5105146;28;20062;-54
2022/05/02 02:11:42;;;;;;;8.52;5.10;;;;;;;;;;5088633;28;20032;-52
2022/05/02 02:14:08;;;;;;;7.78;5.03;;;;;;;;;;5101619;28;20023;-53
2022/05/02 02:16:34;;;;;;;7.80;5.00;;;;;;;;;;5108566;28;20024;-55
2022/05/02 02:19:00;;;;;;;10.43;4.50;;;;;;;;;;5108946;28;20024;-51
2022/05/02 02:21:27;;;;;;;7.00;4.75;;;;;;;;;;5107277;28;20574;-52
2022/05/02 02:23:53;;;;;;;8.45;4.93;;;;;;;;;;5108986;28;20099;-53
2022/05/02 02:26:19;;;;;;;6.95;4.75;;;;;;;;;;5112615;28;20106;-52
2022/05/02 02:28:45;;;;;;;9.40;4.75;;;;;;;;;;5112348;28;20729;-54
2022/05/02 02:31:11;;;;;;;7.80;4.97;;;;;;;;;;5112583;28;20043;-49
2022/05/02 02:33:37;;;;;;;7.97;4.72;;;;;;;;;;5112494;28;20015;-51
2022/05/02 02:36:04;;;;;;;6.78;4.82;;;;;;;;;;5112486;28;20382;-52
2022/05/02 02:38:30;;;;;;;8.50;4.82;;;;;;;;;;5112368;28;20119;-53
2022/05/02 02:40:56;;;;;;;7.65;4.68;;;;;;;;;;5112187;28;20039;-52
2022/05/02 02:43:22;;;;;;;10.13;4.93;;;;;;;;;;5112028;28;20027;-55
2022/05/02 02:45:48;;;;;;;7.90;5.10;;;;;;;;;;5111994;28;20027;-49
2022/05/02 02:48:14;;;;;;;6.50;4.93;;;;;;;;;;5112496;28;20024;-52
2022/05/02 02:50:40;;;;;;;9.77;5.32;;;;;;;;;;5112110;28;20397;-53
2022/05/02 02:53:07;;;;;;;7.28;5.00;;;;;;;;;;5112024;28;20146;-55
2022/05/02 02:55:33;;;;;;;6.63;4.45;;;;;;;;;;5111987;28;20595;-54
2022/05/02 02:57:59;;;;;;;9.15;5.80;;;;;;;;;;5112119;28;20034;-51
2022/05/02 03:00:27;;;;;;;8.40;4.47;;;;;;;;;;5111692;28;20040;-53
2022/05/02 03:02:54;;;;;;;7.35;4.90;;;;;;;;;;5110151;27;20031;-55
2022/05/02 03:08:05;;;;;;;6.78;4.75;;;;;;;;;;5111230;28;20918;-56
2022/05/02 03:10:31;;;;;;;6.13;5.05;;;;;;;;;;5111620;28;20098;-52
2022/05/02 03:12:57;;;;;;;7.35;4.93;;;;;;;;;;5111513;28;20099;-55
2022/05/02 03:15:23;;;;;;;7.70;4.57;;;;;;;;;;5111454;28;20052;-52
2022/05/02 03:17:50;;;;;;;7.15;4.60;;;;;;;;;;5111386;28;20102;-53
2022/05/02 03:20:16;;;;;;;7.80;5.32;;;;;;;;;;5109723;28;20117;-52
2022/05/02 03:22:42;;;;;;;7.03;4.65;;;;;;;;;;5109909;28;20523;-50
2022/05/02 03:25:08;;;;;;;6.72;5.20;;;;;;;;;;5110015;28;20031;-53
2022/05/02 03:27:34;;;;;;;7.82;4.95;;;;;;;;;;5110033;28;20031;-53
2022/05/02 03:30:00;;;;;;;7.53;4.97;;;;;;;;;;5110065;28;20042;-54
2022/05/02 03:32:26;;;;;;;8.98;5.28;;;;;;;;;;5109156;28;20561;-54
2022/05/02 03:34:52;;;;;;;9.55;5.50;;;;;;;;;;5109872;28;20028;-52
2022/05/02 03:37:19;;;;;;;7.20;4.97;;;;;;;;;;5110764;28;20450;-54
2022/05/02 03:39:45;;;;;;;6.57;4.07;;;;;;;;;;5111369;28;20758;-50
2022/05/02 03:42:11;;;;;;;7.13;4.60;;;;;;;;;;5110918;28;20472;-52
2022/05/02 03:44:37;;;;;;;7.40;5.00;;;;;;;;;;5111075;28;20438;-52
2022/05/02 03:47:03;;;;;;;9.45;4.88;;;;;;;;;;5111064;28;20101;-54
2022/05/02 03:49:29;;;;;;;6.30;4.40;;;;;;;;;;5110691;28;20569;-52
2022/05/02 03:51:55;;;;;;;6.72;4.93;;;;;;;;;;5110882;28;20489;-53
2022/05/02 03:54:21;;;;;;;7.25;5.00;;;;;;;;;;5111250;28;20030;-56
2022/05/02 03:56:47;;;;;;;9.63;4.82;;;;;;;;;;5110686;28;20028;-54
2022/05/02 03:59:13;;;;;;;8.88;5.05;;;;;;;;;;5110782;28;20056;-53
2022/05/02 04:01:40;;;;;;;6.82;4.75;;;;;;;;;;5110316;28;20478;-55
2022/05/02 04:04:06;;;;;;;10.00;5.25;;;;;;;;;;5111059;28;20038;-55
2022/05/02 04:06:33;;;;;;;7.43;5.22;;;;;;;;;;5110765;28;20473;-51
2022/05/02 04:08:59;;;;;;;6.70;4.38;;;;;;;;;;5110640;28;20027;-52
2022/05/02 04:11:26;;;;;;;9.77;5.00;;;;;;;;;;5110687;28;20031;-52
2022/05/02 04:13:52;;;;;;;8.48;5.03;;;;;;;;;;5110600;28;20751;-53
2022/05/02 04:16:19;;;;;;;7.57;4.88;;;;;;;;;;5110339;28;20031;-53
2022/05/02 04:18:45;;;;;;;6.88;4.68;;;;;;;;;;5110661;28;20027;-54
2022/05/02 04:21:11;;;;;;;6.35;4.85;;;;;;;;;;5110803;28;20095;-54
2022/05/02 04:23:37;;;;;;;7.57;4.63;;;;;;;;;;5109987;28;20020;-54
2022/05/02 04:26:03;;;;;;;7.85;5.00;;;;;;;;;;5111124;28;20031;-55
2022/05/02 04:28:30;;;;;;;6.50;5.05;;;;;;;;;;5110219;28;20106;-53
2022/05/02 04:30:57;;;;;;;7.13;4.78;;;;;;;;;;5109883;28;20047;-54
2022/05/02 04:33:23;;;;;;;8.30;4.90;;;;;;;;;;5110374;28;20047;-53
2022/05/02 04:35:49;;;;;;;7.00;4.10;;;;;;;;;;5109667;28;20032;-55
2022/05/02 04:38:15;;;;;;;8.13;5.10;;;;;;;;;;5108840;28;20024;-55
2022/05/02 04:40:42;;;;;;;6.43;4.93;;;;;;;;;;5109359;28;20088;-55
2022/05/02 04:43:08;;;;;;;9.20;5.00;;;;;;;;;;5109257;28;20031;-55
2022/05/02 04:45:34;;;;;;;7.18;4.95;;;;;;;;;;5109879;28;20024;-52
2022/05/02 04:48:00;;;;;;;7.57;4.50;;;;;;;;;;5109828;28;20019;-51
2022/05/02 04:50:26;;;;;;;7.45;4.85;;;;;;;;;;5109985;28;20755;-55
2022/05/02 04:52:52;;;;;;;7.75;4.97;;;;;;;;;;5110085;28;20336;-51
2022/05/02 04:55:18;;;;;;;11.23;5.85;;;;;;;;;;5108651;28;20821;-50
2022/05/02 04:57:44;;;;;;;11.57;6.57;;;;;;;;;;5109806;28;20434;-50
2022/05/02 05:00:11;;;;;;;12.57;6.65;;;;;;;;;;5108032;28;20034;-54
2022/05/02 05:02:37;;;;;;;12.20;6.85;;;;;;;;;;5109861;28;20110;-54
2022/05/02 05:05:04;;;;;;;15.88;6.88;;;;;;;;;;5108638;28;20028;-56
2022/05/02 05:07:30;;;;;;;12.07;6.85;;;;;;;;;;5108387;28;20473;-54
2022/05/02 05:09:57;;;;;;;12.30;6.50;;;;;;;;;;5109045;28;20621;-55
2022/05/02 05:12:42;;;;;;;12.45;6.97;;;;;;;;;;5109296;27;20055;-54
2022/05/02 05:17:53;;;;;;;10.45;7.00;;;;;;;;;;5110043;28;20038;-53
2022/05/02 05:20:26;;;;;;;16.20;8.45;;;;;;;;;;5109158;28;20026;-56
2022/05/02 05:23:11;;;;;;;18.77;8.20;;;;;;;;;;5109380;28;20031;-55
2022/05/02 05:25:52;;;;;;;16.70;8.82;;;;;;;;;;5109294;28;20558;-57
2022/05/02 05:28:30;;;;;;;16.05;8.27;;;;;;;;;;5089272;28;20032;-56
2022/05/02 05:31:22;;;;;;;20.52;8.55;;;;;;;;;;5105145;28;20051;-54
2022/05/02 05:34:00;;;;;;;14.93;8.52;;;;;;;;;;5087025;28;20036;-52
2022/05/02 05:36:32;;;;;;;14.65;8.10;;;;;;;;;;5107501;28;20066;-57
2022/05/02 05:39:10;;;;;;;13.95;7.80;;;;;;;;;;5109501;28;20016;-55
2022/05/02 05:42:00;;;;;;;17.83;7.35;;;;;;;;;;5108750;28;20115;-54
2022/05/02 05:44:29;;;;;;;12.27;7.35;;;;;;;;;;5108726;28;20031;-56
2022/05/02 05:46:55;;;;;;;15.00;7.90;;;;;;;;;;5106196;28;20119;-58
2022/05/02 05:49:21;;;;;;;18.80;8.50;;;;;;;;;;5097456;28;20024;-54
2022/05/02 05:51:51;;;;;;;25.35;7.88;;;;;;;;;;5098012;28;20024;-56
2022/05/02 05:54:44;;;;;;;28.40;8.52;;;;;;;;;;5107884;28;20470;-52
2022/05/02 05:57:19;;;;;;;22.23;7.25;;;;;;;;;;5106120;28;20104;-56
2022/05/02 06:00:04;;;;;;;28.60;7.85;;;;;;;;;;5104460;28;20852;-57
2022/05/02 06:02:32;;;;;;;29.42;8.77;;;;;;;;;;5108205;28;20043;-52
2022/05/02 06:04:59;;;;;;;20.88;9.35;;;;;;;;;;5108942;28;20066;-54
2022/05/02 06:07:27;;;;;;;33.08;7.82;;;;;;;;;;5108489;28;20571;-57
2022/05/02 06:09:53;;;;;;;20.33;8.38;;;;;;;;;;5108926;28;20023;-55
2022/05/02 06:12:20;;;;;;;27.05;7.68;;;;;;;;;;5108796;28;20024;-54
2022/05/02 06:20:21;;;;;;;29.23;8.77;;;;;;;;;;5088768;28;20114;-53
2022/05/02 06:22:47;;;;;;;26.00;7.70;;;;;;;;;;5105238;28;20072;-55
2022/05/02 06:25:18;;;;;;;19.48;7.53;;;;;;;;;;5108689;28;20507;-54
2022/05/02 06:27:43;;;;;;;;;;;;;;;;;;5107998;28;20054;-53
2022/05/02 06:30:11;;;;;;;25.27;7.80;;;;;;;;;;5108394;28;20353;-56
2022/05/02 06:32:38;;;;;;;24.30;7.80;;;;;;;;;;5108026;28;20150;-53
2022/05/02 06:35:05;;;;;;;22.25;7.50;;;;;;;;;;5107809;28;20035;-55
2022/05/02 06:37:40;;;;;;;23.08;7.38;;;;;;;;;;5107346;28;20516;-53
2022/05/02 06:40:12;;;;;;;30.30;7.93;;;;;;;;;;5108681;28;20028;-55
2022/05/02 06:42:57;;;;;;;21.75;8.75;;;;;;;;;;5108282;28;20032;-53
2022/05/02 06:45:44;;;;;;;17.60;8.75;;;;;;;;;;5108376;28;20027;-55
2022/05/02 06:48:31;;;;;;;17.85;8.45;;;;;;;;;;5107929;28;20119;-54
2022/05/02 06:51:04;;;;;;;21.98;9.00;;;;;;;;;;5108339;28;20054;-57
2022/05/02 06:54:08;;;;;;;16.42;8.15;;;;;;;;;;5103941;28;20024;-56
2022/05/02 06:56:37;;;;;;;13.27;7.60;;;;;;;;;;5045220;28;20025;-56
2022/05/02 06:59:15;;;;;;;16.85;7.78;;;;;;;;;;5062676;28;20115;-56
2022/05/02 07:02:05;;;;;;;15.95;8.63;;;;;;;;;;5077045;28;20131;-56
2022/05/02 07:04:48;;;;;;;18.80;8.10;;;;;;;;;;5103437;28;20147;-55
2022/05/02 07:07:26;;;;;;;18.30;7.47;;;;;;;;;;5106825;28;20027;-56
2022/05/02 07:09:53;;;;;;;19.33;8.10;;;;;;;;;;5105109;28;20098;-55
2022/05/02 07:12:20;;;;;;;18.67;7.47;;;;;;;;;;5108705;28;20051;-54
2022/05/02 07:14:46;;;;;;;19.58;7.82;;;;;;;;;;5109492;28;20023;-53
2022/05/02 07:17:32;;;;;;;19.17;7.88;;;;;;;;;;5109890;28;20123;-56
2022/05/02 07:20:09;;;;;;;20.00;7.78;;;;;;;;;;5109977;28;20031;-56
2022/05/02 07:22:37;;;;;;;18.90;6.88;;;;;;;;;;5110425;27;20466;-57
2022/05/02 07:25:23;;;;;;;16.13;7.13;;;;;;;;;;5110701;28;20032;-57
2022/05/02 07:27:59;;;;;;;15.30;7.53;;;;;;;;;;5109784;28;20114;-57
2022/05/02 07:30:25;;;;;;;22.33;7.47;;;;;;;;;;5109982;28;20064;-55
2022/05/02 07:32:55;;;;;;;14.80;6.45;;;;;;;;;;5109422;28;20127;-55
2022/05/02 07:35:22;;;;;;;12.57;6.03;;;;;;;;;;5109359;28;20470;-56
2022/05/02 07:37:48;;;;;;;13.05;6.25;;;;;;;;;;5110204;28;20031;-55
2022/05/02 07:40:19;;;;;;;16.80;6.50;;;;;;;;;;5110722;28;20032;-55
2022/05/02 07:42:45;;;;;;;13.43;6.88;;;;;;;;;;5111373;28;20031;-57
2022/05/02 07:45:13;;;;;;;16.13;7.20;;;;;;;;;;5110773;28;20023;-55
2022/05/02 07:47:41;;;;;;;13.00;6.15;;;;;;;;;;5110688;28;20058;-55
2022/05/02 07:50:07;;;;;;;11.55;6.00;;;;;;;;;;5110693;28;20440;-56
2022/05/02 07:52:36;;;;;;;16.27;6.35;;;;;;;;;;5111088;28;20032;-52
2022/05/02 07:55:03;;;;;;;13.43;5.80;;;;;;;;;;5111194;28;20018;-56
2022/05/02 07:57:32;;;;;;;12.77;5.95;;;;;;;;;;5110427;28;20294;-56
2022/05/02 08:00:00;;;;;;;10.30;5.65;;;;;;;;;;5111276;28;20031;-55
2022/05/02 08:02:26;;;;;;;9.25;5.70;;;;;;;;;;5110641;28;20580;-58
2022/05/02 08:04:53;;;;;;;16.40;6.53;;;;;;;;;;5110539;27;20015;-56
2022/05/02 08:07:25;;;;;;;12.15;6.18;;;;;;;;;;5110630;28;20038;-53
2022/05/02 08:09:54;;;;;;;9.70;5.55;;;;;;;;;;5110349;27;20149;-55
2022/05/02 08:12:33;;;;;;;15.18;6.15;;;;;;;;;;5110652;28;20024;-55
2022/05/02 08:15:05;;;;;;;13.63;5.72;;;;;;;;;;5110686;28;20526;-55
2022/05/02 08:17:33;;;;;;;9.15;5.00;;;;;;;;;;5110041;28;20042;-58
2022/05/02 08:20:08;;;;;;;9.80;5.30;;;;;;;;;;5110555;28;20023;-55
2022/05/02 08:28:32;;;;;;;11.23;4.75;;;;;;;;;;5103171;28;20511;-56
2022/05/02 08:31:02;;;;;;;9.63;5.05;;;;;;;;;;5110085;28;20083;-55
2022/05/02 08:33:30;;;;;;;10.75;5.25;;;;;;;;;;5109876;28;20086;-54
2022/05/02 08:36:00;;;;;;;12.80;5.70;;;;;;;;;;5107164;28;20031;-56
2022/05/02 08:38:29;;;;;;;11.35;4.90;;;;;;;;;;5099670;28;20031;-57
2022/05/02 08:41:11;;;;;;;9.25;5.57;;;;;;;;;;5100889;28;20481;-53
2022/05/02 08:43:37;;;;;;;12.98;5.57;;;;;;;;;;5099879;28;20035;-56
2022/05/02 08:46:09;;;;;;;12.45;4.80;;;;;;;;;;5109939;28;20103;-56
2022/05/02 08:49:32;;;;;;;7.38;5.25;;;;;;;;;;5102791;28;20024;-55
2022/05/02 08:51:46;;;;;;;9.38;4.85;;;;;;;;;;5108624;27;20024;-55
2022/05/02 08:54:30;;;;;;;15.07;8.13;;;;;;;;;;5109689;28;20152;-53
2022/05/02 08:56:59;;;;;;;21.15;9.18;;;;;;;;;;5103886;28;20555;-55
2022/05/02 08:59:44;;;;;;;23.83;11.00;;;;;;;;;;5109778;28;20031;-57
2022/05/02 09:02:22;;;;;;;21.48;10.70;;;;;;;;;;5111510;27;20043;-55
2022/05/02 09:04:51;;;;;;;21.13;9.95;;;;;;;;;;5108817;28;20604;-54
2022/05/02 09:07:18;;;;;;;18.00;10.02;;;;;;;;;;5101833;28;20023;-54
2022/05/02 09:09:46;;;;;;;22.33;11.18;;;;;;;;;;5109862;28;20038;-50
2022/05/02 09:12:22;;;;;;;21.00;10.95;;;;;;;;;;5109196;28;20129;-55
2022/05/02 09:14:57;;;;;;;20.65;10.50;;;;;;;;;;5109659;28;20142;-54
2022/05/02 09:17:26;;;;;;;19.60;11.65;;;;;;;;;;5109141;28;20134;-56
2022/05/02 09:19:58;;;;;;;15.35;10.85;;;;;;;;;;5108984;28;20028;-56
2022/05/02 09:22:30;;;;;;;15.27;10.25;;;;;;;;;;5109484;28;20103;-54
2022/05/02 09:25:07;;;;;;;15.35;10.60;;;;;;;;;;5109377;28;20019;-52
2022/05/02 09:27:51;;;;;;;18.88;10.73;;;;;;;;;;5108964;28;20118;-54
2022/05/02 09:30:36;;;;;;;17.75;11.35;;;;;;;;;;5100035;28;20154;-51
2022/05/02 09:33:14;;;;;;;15.60;11.45;;;;;;;;;;5107662;28;20032;-55
2022/05/02 09:35:53;;;;;;;17.45;10.27;;;;;;;;;;5109237;28;20107;-53
2022/05/02 09:38:19;;;;;;;14.43;10.18;;;;;;;;;;5108779;28;20049;-52
2022/05/02 09:40:46;;;;;;;15.93;10.98;;;;;;;;;;5098072;28;20039;-55
2022/05/02 09:49:37;;;;;;;13.93;10.13;;;;;;;;;;5108698;28;20501;-55
2022/05/02 09:52:04;;;;;;;11.38;9.15;;;;;;;;;;5108759;28;20469;-53
2022/05/02 09:57:24;;;;;;;14.63;9.80;;;;;;;;;;5089668;28;20089;-54
2022/05/02 10:02:41;;;;;;;15.32;10.68;;;;;;;;;;5108964;28;20070;-55
2022/05/02 10:05:08;;;;;;;13.82;10.40;;;;;;;;;;5108271;28;20028;-55
2022/05/02 10:07:37;;;;;;;14.82;9.82;;;;;;;;;;5108568;28;20119;-55
2022/05/02 10:10:05;;;;;;;13.95;10.25;;;;;;;;;;5106793;28;20035;-54
2022/05/02 10:12:34;;;;;;;13.32;10.45;;;;;;;;;;5108015;28;20092;-54
2022/05/02 10:15:11;;;;;;;14.43;10.13;;;;;;;;;;5108805;28;20149;-54
2022/05/02 10:17:51;;;;;;;15.00;9.85;;;;;;;;;;5092441;28;20027;-57
2022/05/02 10:20:18;;;;;;;16.45;10.13;;;;;;;;;;5100489;28;20024;-54
2022/05/02 10:22:45;;;;;;;12.50;9.85;;;;;;;;;;5107184;28;20439;-53
2022/05/02 10:25:14;;;;;;;14.88;10.48;;;;;;;;;;5105830;28;20027;-52
2022/05/02 10:27:59;;;;;;;13.88;10.45;;;;;;;;;;5101131;28;20028;-56
2022/05/02 10:30:29;;;;;;;14.20;10.32;;;;;;;;;;5098943;28;20032;-53
2022/05/02 10:32:56;;;;;;;15.60;10.67;;;;;;;;;;5107009;28;20082;-53
2022/05/02 10:35:23;;;;;;;15.43;10.30;;;;;;;;;;5107641;28;20266;-54
2022/05/02 10:38:10;;;;;;;19.08;9.93;;;;;;;;;;5108751;28;20052;-55
2022/05/02 10:40:40;;;;;;;14.18;10.70;;;;;;;;;;5108144;28;20153;-54
2022/05/02 10:43:10;;;;;;;17.70;10.20;;;;;;;;;;5108223;28;20110;-54
2022/05/02 10:45:37;;;;;;;16.13;10.32;;;;;;;;;;5109288;28;20028;-52
2022/05/02 10:48:11;;;;;;;15.48;10.40;;;;;;;;;;5112586;28;20035;-54
2022/05/02 10:50:38;;;;;;;24.42;10.60;;;;;;;;;;5112726;27;20039;-55
2022/05/02 10:53:04;;;;;;;14.60;10.38;;;;;;;;;;5112789;28;20115;-55
2022/05/02 10:55:33;;;;;;;16.25;10.20;;;;;;;;;;5112155;27;20102;-55
2022/05/02 10:58:04;;;;;;;14.48;10.57;;;;;;;;;;5112357;28;20034;-52
2022/05/02 11:00:30;;;;;;;17.02;11.02;;;;;;;;;;5111429;28;20134;-51
2022/05/02 11:02:56;;;;;;;13.30;10.57;;;;;;;;;;5111845;28;20024;-56
2022/05/02 11:05:26;;;;;;;12.32;9.95;;;;;;;;;;5110485;28;20032;-56
2022/05/02 11:07:55;;;;;;;12.65;9.93;;;;;;;;;;5111741;28;20100;-54
2022/05/02 11:10:27;;;;;;;12.70;9.85;;;;;;;;;;5111931;28;20023;-52
2022/05/02 11:13:02;;;;;;;13.35;9.73;;;;;;;;;;5111864;28;20432;-54
2022/05/02 11:15:34;;;;;;;12.10;9.77;;;;;;;;;;5112194;28;20062;-54
2022/05/02 11:20:41;;;;;;;13.73;10.70;;;;;;;;;;5112222;28;20438;-54
2022/05/02 11:21:21;;;;;;;14.30;9.50;;;;;;;;;;5111655;28;20503;-55
2022/05/02 11:23:46;;;;;;;12.18;9.52;;;;;;;;;;5072818;28;20123;-54
2022/05/02 11:26:27;;;;;;;11.50;9.23;;;;;;;;;;5100884;28;20042;-55
2022/05/02 11:28:56;;;;;;;12.43;9.93;;;;;;;;;;5110100;28;20028;-54
2022/05/02 11:31:24;;;;;;;11.77;8.50;;;;;;;;;;5111629;28;20134;-52
2022/05/02 11:33:57;;;;;;;12.43;9.43;;;;;;;;;;5111265;28;21010;-52
2022/05/02 11:36:26;;;;;;;14.10;10.10;;;;;;;;;;5103127;28;20148;-50
2022/05/02 11:39:05;;;;;;;14.02;8.90;;;;;;;;;;5111003;28;20023;-55
2022/05/02 11:41:32;;;;;;;14.23;8.82;;;;;;;;;;5110099;28;20062;-55
2022/05/02 11:44:13;;;;;;;14.02;8.52;;;;;;;;;;5108193;28;20078;-54
2022/05/02 11:46:58;;;;;;;11.32;8.10;;;;;;;;;;5109896;28;20443;-55
2022/05/02 11:49:31;;;;;;;11.63;7.93;;;;;;;;;;5109754;28;20034;-55
2022/05/02 11:52:01;;;;;;;13.70;8.13;;;;;;;;;;5109291;28;20558;-55
2022/05/02 11:54:27;;;;;;;12.50;7.88;;;;;;;;;;5109429;28;20030;-56
2022/05/02 11:57:07;;;;;;;10.90;7.68;;;;;;;;;;5108935;28;20123;-55
2022/05/02 11:59:55;;;;;;;9.33;7.03;;;;;;;;;;5108535;28;20492;-54
2022/05/02 12:02:39;;;;;;;12.40;7.03;;;;;;;;;;5110909;28;20061;-51
2022/05/02 12:05:17;;;;;;;10.10;7.28;;;;;;;;;;5109856;28;20134;-50
2022/05/02 12:08:03;;;;;;;8.73;6.25;;;;;;;;;;5110493;28;20036;-53
2022/05/02 12:10:33;;;;;;;10.90;6.53;;;;;;;;;;5090381;28;20031;-56
2022/05/02 12:13:00;;;;;;;10.50;6.25;;;;;;;;;;5094680;28;20418;-55
2022/05/02 12:15:26;;;;;;;7.93;5.97;;;;;;;;;;5110608;28;20054;-53
2022/05/02 12:17:56;;;;;;;9.80;5.97;;;;;;;;;;5110416;28;20024;-54
2022/05/02 12:20:26;;;;;;;9.10;6.65;;;;;;;;;;5103045;28;20050;-53
2022/05/02 12:22:56;;;;;;;9.90;6.57;;;;;;;;;;5110540;28;20035;-55
2022/05/02 12:25:23;;;;;;;9.70;5.32;;;;;;;;;;5109979;28;20027;-56
2022/05/02 12:27:50;;;;;;;9.60;5.60;;;;;;;;;;5110514;28;20019;-54
2022/05/02 12:30:17;;;;;;;12.65;8.18;;;;;;;;;;5110361;28;20473;-54
2022/05/02 12:32:45;;;;;;;14.00;7.93;;;;;;;;;;5110398;28;20459;-54
2022/05/02 12:35:12;;;;;;;15.18;9.02;;;;;;;;;;5109757;28;20028;-53
2022/05/02 12:37:40;;;;;;;12.40;8.60;;;;;;;;;;5117836;27;20019;-55
2022/05/02 12:40:08;;;;;;;12.82;8.52;;;;;;;;;;5115714;27;20062;-53
2022/05/02 12:42:41;;;;;;;12.73;9.48;;;;;;;;;;5109494;28;20043;-52
2022/05/02 12:45:11;;;;;;;13.40;9.50;;;;;;;;;;5110130;28;20485;-54
2022/05/02 12:47:41;;;;;;;12.32;9.23;;;;;;;;;;5109966;28;20086;-50
2022/05/02 12:50:08;;;;;;;13.75;8.85;;;;;;;;;;5110031;28;20027;-54
2022/05/02 12:52:35;;;;;;;11.60;8.65;;;;;;;;;;5109481;28;20024;-56
2022/05/02 12:55:02;;;;;;;14.50;8.05;;;;;;;;;;5100483;28;20096;-54
2022/05/02 13:00:31;;;;;;;10.48;7.68;;;;;;;;;;5102930;28;20031;-55
2022/05/02 13:03:00;;;;;;;12.65;7.97;;;;;;;;;;5103022;28;20081;-55
2022/05/02 13:05:29;;;;;;;13.52;9.43;;;;;;;;;;5103112;28;20056;-51
2022/05/02 13:07:56;;;;;;;13.45;8.18;;;;;;;;;;5104353;28;20099;-54
2022/05/02 13:10:23;;;;;;;14.45;9.13;;;;;;;;;;5102689;28;20027;-53
2022/05/02 13:13:08;;;;;;;10.45;8.90;;;;;;;;;;5103762;28;20458;-54
2022/05/02 13:15:37;;;;;;;10.65;8.35;;;;;;;;;;5099581;28;20118;-56
2022/05/02 13:18:05;;;;;;;11.88;8.40;;;;;;;;;;5104426;28;20152;-55
2022/05/02 13:20:32;;;;;;;17.52;8.38;;;;;;;;;;5102104;28;20114;-52
2022/05/02 13:23:07;;;;;;;11.30;7.70;;;;;;;;;;5104557;28;20139;-56
2022/05/02 13:25:45;;;;;;;10.93;8.10;;;;;;;;;;5102145;28;20044;-56
2022/05/02 13:28:18;;;;;;;13.40;8.77;;;;;;;;;;5101677;28;20618;-54
2022/05/02 13:30:49;;;;;;;14.60;8.13;;;;;;;;;;5100577;28;20035;-54
2022/05/02 13:33:18;;;;;;;11.70;7.80;;;;;;;;;;5104973;28;20040;-54
2022/05/02 13:35:47;;;;;;;10.25;7.72;;;;;;;;;;5100193;28;20035;-54
2022/05/02 13:38:19;;;;;;;10.50;8.38;;;;;;;;;;5103855;28;20477;-54
2022/05/02 13:40:57;;;;;;;11.43;7.68;;;;;;;;;;5103569;28;20109;-54
2022/05/02 13:43:35;;;;;;;10.07;7.13;;;;;;;;;;5102980;28;20105;-54
2022/05/02 13:46:01;;;;;;;11.23;7.47;;;;;;;;;;5103574;28;20115;-54
2022/05/02 13:48:33;;;;;;;11.80;8.10;;;;;;;;;;5102252;28;20019;-55
2022/05/02 13:51:04;;;;;;;10.35;7.45;;;;;;;;;;5101594;28;20077;-54
2022/05/02 13:53:35;;;;;;;12.55;7.22;;;;;;;;;;5102234;28;20099;-52
2022/05/02 13:56:06;;;;;;;11.38;7.90;;;;;;;;;;5101292;28;20110;-52
2022/05/02 13:58:41;;;;;;;9.80;7.50;;;;;;;;;;5100641;28;20019;-53
2022/05/02 14:01:28;;;;;;;12.88;8.10;;;;;;;;;;5102036;28;20119;-49
2022/05/02 14:04:01;;;;;;;10.45;6.80;;;;;;;;;;5101053;28;20549;-51
2022/05/02 14:06:30;;;;;;;13.00;7.20;;;;;;;;;;5098699;28;20695;-53
2022/05/02 14:08:59;;;;;;;8.35;6.65;;;;;;;;;;5101262;28;20032;-54
2022/05/02 14:11:28;;;;;;;9.05;6.47;;;;;;;;;;5100679;28;20031;-55
2022/05/02 14:14:09;;;;;;;11.40;6.10;;;;;;;;;;5100085;28;20028;-53
2022/05/02 14:16:35;;;;;;;8.98;6.28;;;;;;;;;;5099711;28;20024;-55
2022/05/02 14:19:02;;;;;;;9.77;6.28;;;;;;;;;;5100543;28;20144;-54
2022/05/02 14:21:31;;;;;;;9.68;6.32;;;;;;;;;;5104012;28;20584;-56
2022/05/02 14:23:58;;;;;;;10.63;6.55;;;;;;;;;;5105301;28;20656;-51
2022/05/02 14:26:28;;;;;;;9.80;5.72;;;;;;;;;;5104657;27;22232;-55
2022/05/02 14:28:55;;;;;;;13.20;6.07;;;;;;;;;;5106700;28;20032;-53
2022/05/02 14:31:21;;;;;;;13.48;5.90;;;;;;;;;;5106943;28;20391;-56
2022/05/02 14:33:52;;;;;;;9.07;5.13;;;;;;;;;;5107090;28;20826;-56
2022/05/02 14:36:19;;;;;;;13.88;5.85;;;;;;;;;;5106699;28;20024;-54
2022/05/02 14:38:46;;;;;;;9.52;6.05;;;;;;;;;;5107529;28;20165;-55
2022/05/02 14:41:13;;;;;;;11.30;5.38;;;;;;;;;;5105719;28;20505;-55
2022/05/02 14:43:39;;;;;;;12.35;5.82;;;;;;;;;;5106705;28;20046;-55
2022/05/02 14:46:08;;;;;;;7.85;5.40;;;;;;;;;;5104818;28;20434;-53
2022/05/02 14:48:35;;;;;;;9.67;5.40;;;;;;;;;;5105582;28;20099;-55
2022/05/02 14:51:05;;;;;;;11.25;5.00;;;;;;;;;;5107778;28;20027;-54
2022/05/02 14:53:32;;;;;;;;;;;;;;;;;;5106864;28;20027;-56
2022/05/02 14:55:58;;;;;;;14.52;5.30;;;;;;;;;;5106943;28;19912;-56
2022/05/02 14:58:26;;;;;;;9.48;5.20;;;;;;;;;;5106055;28;20038;-54
2022/05/02 15:00:56;;;;;;;9.05;5.95;;;;;;;;;;5107089;28;20055;-55
2022/05/02 15:03:25;;;;;;;11.07;6.60;;;;;;;;;;5105517;28;20489;-54
2022/05/02 15:05:53;;;;;;;10.93;7.32;;;;;;;;;;5103500;28;20016;-54
2022/05/02 15:08:24;;;;;;;9.45;7.22;;;;;;;;;;5103819;28;20047;-53
2022/05/02 15:10:54;;;;;;;9.45;6.70;;;;;;;;;;5106570;28;20027;-52
2022/05/02 15:13:29;;;;;;;9.57;6.23;;;;;;;;;;5104994;28;20020;-53
2022/05/02 15:16:03;;;;;;;8.63;6.05;;;;;;;;;;5104908;28;20737;-53
2022/05/02 15:21:38;;;;;;;21.20;6.90;;;;;;;;;;5106018;28;20509;-55
2022/05/02 15:24:23;;;;;;;10.93;6.10;;;;;;;;;;5105588;28;20062;-52
2022/05/02 15:26:50;;;;;;;11.30;6.63;;;;;;;;;;5105807;28;20110;-55